Temp     Hi    Low   Out    Dew  Wind  Wind   Wind    Hi    Hi   Wind   Heat    THW   THSW                Rain  Solar   Solar Hi Solar   UV    UV    Hi     Heat    Cool    In     In    In     In           Wind  Wind    ISS   Arc.
  Date    Time     Out   Temp   Temp   Hum    Pt. Speed   Dir    Run Speed   Dir  Chill  Index  Index  Index   Bar    Rain  Rate   Rad.  Energy    Rad.  Index  Dose   UV     D-D     D-D    Temp   Hum    Dew   Heat     ET   Samp   Tx   Recept  Int.
---------------------------------------------------------------------------------------------------------------------------------------------------------------------------------------------------------------------------------------------------------
15/07/19   0.15   26.0   26.0   25.9    71   20.3   6.4   SSE   1.61  17.7   SSE   26.0   27.3   27.3   26.3   964.9  0.00   0.0     0     0.00      0     0.0  0.00   0.0   0.000   0.080   29.0    59   20.2   31.0    0.00   350    1    100.0   15 
15/07/19   0.30   26.0   26.1   25.9    69   19.9   4.8   SSE   1.21  20.9   SSE   26.0   27.2   27.2   26.1   964.9  0.00   0.0     0     0.00      0     0.0  0.00   0.0   0.000   0.080   28.9    59   20.1   30.8    0.00   351    1    100.0   15 
15/07/19   0.45   26.2   26.2   26.0    68   19.8   3.2   SSE   0.80  19.3   SSE   26.2   27.3   27.3   26.3   964.9  0.00   0.0     0     0.00      0     0.0  0.00   0.0   0.000   0.082   28.9    59   20.1   30.8    0.00   350    1    100.0   15 
15/07/19   1.00   26.1   26.2   26.1    69   19.9   3.2     S   0.80  16.1     S   26.1   27.3   27.3   26.2   964.9  0.00   0.0     0     0.00      0     0.0  0.00   0.0   0.000   0.080   29.1    58   20.0   31.1    0.05   351    1    100.0   15 
15/07/19   1.15   26.1   26.1   26.0    70   20.2   4.8     S   1.21  16.1     S   26.1   27.3   27.3   26.3   964.9  0.00   0.0     0     0.00      0     0.0  0.00   0.0   0.000   0.080   29.1    58   20.0   31.1    0.00   350    1    100.0   15 
15/07/19   1.30   26.0   26.1   25.9    71   20.3   4.8     S   1.21  24.1     S   26.0   27.3   27.3   26.3   964.9  0.00   0.0     0     0.00      0     0.0  0.00   0.0   0.000   0.080   29.1    58   20.0   31.1    0.00   347    1    100.0   15 
15/07/19   1.45   25.9   26.0   25.8    72   20.5   6.4     S   1.61  22.5     S   25.9   27.2   27.2   26.2   964.9  0.00   0.0     0     0.00      0     0.0  0.00   0.0   0.000   0.079   29.0    59   20.2   31.0    0.00   351    1    100.0   15 
15/07/19   2.00   25.9   26.0   25.8    72   20.5   4.8   SSE   1.21  19.3   SSE   25.9   27.3   27.3   26.3   964.9  0.00   0.0     0     0.00      0     0.0  0.00   0.0   0.000   0.079   29.0    60   20.4   31.1    0.05   352    1    100.0   15 
15/07/19   2.15   25.8   25.9   25.7    71   20.1   1.6   SSE   0.40  16.1   SSE   25.8   27.0   27.0   25.9   964.9  0.00   0.0     0     0.00      0     0.0  0.00   0.0   0.000   0.078   29.0    60   20.4   31.1    0.00   350    1    100.0   15 
15/07/19   2.30   25.8   25.9   25.7    71   20.1   1.6     S   0.40  11.3     S   25.8   27.0   27.0   25.9   964.9  0.00   0.0     0     0.00      0     0.0  0.00   0.0   0.000   0.078   28.9    60   20.3   30.9    0.00   351    1    100.0   15 
15/07/19   2.45   25.8   25.8   25.7    69   19.7   1.6     S   0.40  16.1    SE   25.8   26.9   26.9   25.9   964.9  0.00   0.0     0     0.00      0     0.0  0.00   0.0   0.000   0.078   28.9    60   20.3   30.9    0.00   351    1    100.0   15 
15/07/19   3.00   25.9   25.9   25.8    66   19.0   3.2   SSE   0.80  16.1   SSE   25.9   26.8   26.8   25.7   964.9  0.00   0.0     0     0.00      0     0.0  0.00   0.0   0.000   0.079   28.9    59   20.1   30.8    0.03   348    1    100.0   15 
15/07/19   3.15   25.8   26.0   25.8    70   19.9   0.0   SSE   0.00   9.7    SE   25.8   26.9   26.9   25.9   964.9  0.00   0.0     0     0.00      0     0.0  0.00   0.0   0.000   0.078   28.8    59   20.0   30.6    0.00   351    1    100.0   15 
15/07/19   3.30   25.9   25.9   25.6    65   18.8   0.0    SE   0.00   6.4    SE   25.9   26.8   26.8   25.6   964.9  0.00   0.0     0     0.00      0     0.0  0.00   0.0   0.000   0.079   28.8    59   20.0   30.6    0.00   349    1    100.0   15 
15/07/19   3.45   25.9   25.9   25.9    68   19.6   0.0    SE   0.00   6.4    SE   25.9   27.1   27.1   26.0   964.9  0.00   0.0     0     0.00      0     0.0  0.00   0.0   0.000   0.079   28.8    58   19.7   30.5    0.00   351    1    100.0   15 
15/07/19   4.00   25.1   25.9   25.1    74   20.1   1.6   SSE   0.40  11.3   SSE   25.1   26.4   26.4   25.4   964.9  0.00   0.0     0     0.00      0     0.0  0.00   0.0   0.000   0.071   28.7    60   20.1   30.5    0.03   350    1    100.0   15 
15/07/19   4.15   24.1   25.1   24.1    77   19.8   0.0     S   0.00   9.7     S   24.1   25.4   25.4   24.4   964.9  0.00   0.0     0     0.00      0     0.0  0.00   0.0   0.000   0.060   28.7    62   20.7   30.8    0.00   350    1    100.0   15 
15/07/19   4.30   23.6   24.1   23.6    79   19.8   0.0     S   0.00   6.4     S   23.6   24.8   24.8   23.8   964.9  0.00   0.0     0     0.00      0     0.0  0.00   0.0   0.000   0.055   28.7    63   20.9   30.9    0.00   351    1    100.0   15 
15/07/19   4.45   22.6   23.6   22.6    82   19.4   0.0     S   0.00   1.6     S   22.6   23.6   23.6   22.5   964.9  0.00   0.0     0     0.00      0     0.0  0.00   0.0   0.000   0.045   28.6    63   20.8   30.7    0.00   350    1    100.0   15 
15/07/19   5.00   22.6   22.6   22.4    84   19.7   0.0   ---   0.00   0.0   ---   22.6   23.6   23.6   22.6   964.9  0.00   0.0     0     0.00      0     0.0  0.00   0.0   0.000   0.044   28.4    64   21.0   30.6    0.03   350    1    100.0   15 
15/07/19   5.15   21.8   22.6   21.7    84   19.0   0.0     S   0.00   6.4   SSE   21.8   22.7   22.7   21.6   964.9  0.00   0.0     0     0.00      0     0.0  0.00   0.0   0.000   0.036   28.3    64   20.9   30.4    0.00   351    1    100.0   15 
15/07/19   5.30   21.9   22.1   21.8    83   18.9   0.0    SE   0.00   3.2    SE   21.9   22.8   22.8   21.7   964.9  0.00   0.0     0     0.00      0     0.0  0.00   0.0   0.000   0.038   28.2    63   20.5   30.1    0.00   348    1    100.0   15 
15/07/19   5.45   21.9   21.9   21.8    82   18.7   0.0    SE   0.00   3.2    SE   21.9   22.8   22.8   21.6   964.9  0.00   0.0     0     0.00      0     0.0  0.00   0.0   0.000   0.038   27.9    63   20.2   29.5    0.00   351    1    100.0   15 
15/07/19   6.00   21.9   22.1   21.9    82   18.7   0.0    SE   0.00   1.6    SE   21.9   22.7   22.7   21.6   964.9  0.00   0.0     0     0.00      0     0.0  0.00   0.0   0.000   0.037   27.7    63   20.0   29.2    0.00   351    1    100.0   15 
15/07/19   6.15   22.4   22.4   21.8    81   19.0   1.6    SE   0.40  20.9    SE   22.4   23.3   23.3   22.2   964.9  0.00   0.0     0     0.00      0     0.0  0.00   0.0   0.000   0.042   27.5    63   19.8   28.9    0.00   352    1    100.0   15 
15/07/19   6.30   22.3   22.7   22.3    80   18.7   8.0   SSW   2.01  33.8   SSW   22.3   23.1   23.1   21.9   964.9  0.00   0.0     1     0.02      5     0.0  0.00   0.0   0.000   0.041   26.9    64   19.5   28.1    0.00   351    1    100.0   15 
15/07/19   6.45   21.7   22.3   21.7    82   18.5   3.2   SSW   0.80  19.3     S   21.7   22.6   22.6   21.4   964.9  0.25   0.0     0     0.00      0     0.0  0.00   0.0   0.000   0.035   26.6    65   19.4   27.6    0.00   351    1    100.0   15 
15/07/19   7.00   21.6   21.7   21.5    84   18.7   0.0   ESE   0.00  12.9     W   21.6   22.4   22.4   21.8   964.9  0.51   2.5     7     0.15     11     0.0  0.00   0.0   0.000   0.034   26.6    66   19.7   27.7    0.03   350    1    100.0   15 
15/07/19   7.15   21.1   21.6   21.1    86   18.6   3.2   SSE   0.80  17.7   SSE   21.1   21.9   21.9   21.7   964.9  1.52   9.9    20     0.43     28     0.0  0.00   0.0   0.000   0.028   26.3    68   20.0   27.6    0.00   350    1    100.0   15 
15/07/19   7.30   21.1   21.2   21.0    86   18.6   4.8   SSE   1.21  20.9    SE   21.1   21.9   21.9   22.1   964.9  0.00   1.0    40     0.86     46     0.0  0.00   0.0   0.000   0.028   26.2    68   19.8   27.3    0.00   352    1    100.0   15 
15/07/19   7.45   21.6   21.7   21.1    85   19.0   3.2    SE   0.80  19.3    SE   21.6   22.6   22.6   22.8   964.9  0.00   0.0    41     0.88     44     0.0  0.00   0.0   0.000   0.034   26.2    68   19.8   27.3    0.00   351    1    100.0   15 
15/07/19   8.00   21.8   21.8   21.4    83   18.8   8.0   SSE   2.01  29.0   SSE   21.8   22.7   22.7   22.8   964.9  0.00   0.0    45     0.97     54     0.0  0.00   0.0   0.000   0.036   26.2    68   19.8   27.3    0.03   351    1    100.0   15 
15/07/19   8.15   22.4   22.4   21.8    76   18.0   8.0    SE   2.01  27.4   SSE   22.4   23.2   23.2   23.6   964.9  0.00   0.0    59     1.27     72     0.0  0.00   0.0   0.000   0.043   26.3    66   19.4   27.3    0.00   351    1    100.0   15 
15/07/19   8.30   22.5   22.8   22.4    78   18.5   8.0    SE   2.01  30.6    SE   22.5   23.3   23.3   23.7   964.9  0.00   0.0    62     1.33     70     0.0  0.00   0.0   0.000   0.043   26.4    66   19.6   27.6    0.00   352    1    100.0   15 
15/07/19   8.45   22.5   22.5   22.3    80   18.9   4.8   ESE   1.21  17.7     E   22.5   23.4   23.4   23.5   964.9  0.00   0.0    50     1.08     63     0.0  0.00   0.0   0.000   0.043   26.7    66   19.8   27.8    0.00   350    1    100.0   15 
15/07/19   9.00   22.8   22.9   22.5    77   18.6   6.4    SE   1.61  24.1   ESE   22.8   23.8   23.8   23.8   964.9  0.00   0.0    45     0.97     56     0.0  0.00   0.0   0.000   0.047   26.9    66   20.0   28.2    0.05   351    1    100.0   15 
15/07/19   9.15   23.2   23.2   22.8    71   17.6   8.0   ESE   2.01  25.7    SE   23.2   24.0   24.0   23.6   964.9  0.00   0.0    29     0.62     42     0.0  0.00   0.0   0.000   0.050   27.0    64   19.6   28.2    0.00   351    1    100.0   15 
15/07/19   9.30   23.0   23.2   22.8    72   17.7   4.8   ESE   1.21  19.3   ESE   23.0   23.8   23.8   24.0   964.9  0.00   0.0    67     1.44     98     0.0  0.00   0.0   0.000   0.049   27.2    62   19.3   28.3    0.00   351    1    100.0   15 
15/07/19   9.45   23.4   23.4   22.9    74   18.5   1.6   ESE   0.40  16.1   ESE   23.4   24.4   24.4   27.2   964.9  0.00   0.0   231     4.97    357     0.0  0.00   0.0   0.000   0.053   27.3    62   19.4   28.4    0.00   351    1    100.0   15 
15/07/19  10.00   23.9   23.9   23.4    74   19.0   6.4    SE   1.61  24.1    SE   23.9   25.0   25.0   28.9   964.9  0.00   0.0   327     7.03    399     0.0  0.00   0.0   0.000   0.058   27.5    63   19.8   28.9    0.13   351    1    100.0   15 
15/07/19  10.15   24.4   24.4   23.9    72   19.1  11.3    SE   2.82  29.0   ESE   24.4   25.6   25.6   29.3   964.9  0.00   0.0   334     7.18    420     0.0  0.00   0.0   0.000   0.064   27.5    63   19.8   28.9    0.00   349    1    100.0   15 
15/07/19  10.30   24.6   24.8   24.4    73   19.4  14.5    SE   3.62  33.8    SE   23.8   25.8   25.1   29.9   964.9  0.00   0.0   490    10.54    831     0.6  0.06   1.5   0.000   0.065   27.5    63   19.8   28.9    0.00   351    1    100.0   15 
15/07/19  10.45   24.3   24.6   24.1    75   19.6  14.5    SE   3.62  30.6    SE   23.6   25.6   24.8   27.7   964.9  0.00   0.0   291     6.26    411     0.0  0.00   0.0   0.000   0.062   27.5    64   20.1   29.0    0.00   352    1    100.0   15 
15/07/19  11.00   24.0   24.4   24.0    75   19.3  11.3    SE   2.82  30.6     S   24.0   25.2   25.2   27.6   964.9  0.00   0.0   237     5.10    563     0.1  0.01   0.6   0.000   0.059   27.5    65   20.3   29.1    0.28   350    1    100.0   15 
15/07/19  11.15   23.7   24.1   23.7    78   19.6   6.4    SE   1.61  22.5     E   23.7   24.9   24.9   25.9   964.9  0.00   0.0   135     2.90    169     0.0  0.00   0.0   0.000   0.056   27.6    65   20.4   29.3    0.00   350    1    100.0   15 
15/07/19  11.30   23.5   23.7   23.4    77   19.2   4.8    SE   1.21  17.7    SE   23.5   24.6   24.6   26.1   964.9  0.00   0.0   164     3.53    192     0.0  0.00   0.0   0.000   0.054   27.6    65   20.4   29.3    0.00   351    1    100.0   15 
15/07/19  11.45   23.6   23.6   23.4    76   19.1   6.4   ESE   1.61  19.3   ESE   23.6   24.7   24.7   26.1   964.9  0.00   0.0   165     3.55    179     0.0  0.00   0.0   0.000   0.054   27.7    64   20.3   29.3    0.00   352    1    100.0   15 
15/07/19  12.00   23.7   23.7   23.4    76   19.2   6.4   ESE   1.61  27.4   SSE   23.7   24.9   24.9   26.4   964.9  0.00   0.0   172     3.70    185     0.0  0.00   0.0   0.000   0.056   27.7    64   20.3   29.3    0.13   351    1    100.0   15 
15/07/19  12.15   23.9   23.9   23.7    75   19.2   6.4   ESE   1.61  27.4   SSE   23.9   25.1   25.1   26.8   964.9  0.00   0.0   193     4.15    234     0.0  0.00   0.0   0.000   0.058   27.7    64   20.3   29.3    0.00   349    1    100.0   15 
15/07/19  12.30   24.0   24.1   23.8    74   19.1   9.7   ESE   2.41  27.4   ESE   24.0   25.2   25.2   27.7   964.9  0.00   0.0   245     5.27    325     0.0  0.00   0.0   0.000   0.059   27.6    63   19.9   29.1    0.00   350    1    100.0   15 
15/07/19  12.45   24.1   24.1   23.9    74   19.1   8.0   ESE   2.01  32.2    SE   24.1   25.2   25.2   26.4   964.9  0.00   0.0   153     3.29    199     0.0  0.00   0.0   0.000   0.060   27.6    63   19.9   29.1    0.00   341    1     99.7   15 
15/07/19  13.00   23.8   24.1   23.8    73   18.7   8.0   ESE   2.01  24.1   ESE   23.8   24.9   24.9   25.2   964.9  0.00   0.0    83     1.78    114     0.0  0.00   0.0   0.000   0.057   27.6    63   19.9   29.1    0.13   350    1    100.0   15 
15/07/19  13.15   23.9   23.9   23.8    73   18.8   9.7   ESE   2.41  25.7   ESE   23.9   24.9   24.9   24.8   964.9  0.00   0.0    52     1.12     69     0.0  0.00   0.0   0.000   0.058   27.6    63   19.9   29.1    0.00   350    1    100.0   15 
15/07/19  13.30   23.8   24.0   23.8    74   18.9   9.7   ESE   2.41  25.7   ESE   23.8   24.9   24.9   24.6   964.9  0.00   0.0    37     0.80     47     0.0  0.00   0.0   0.000   0.057   27.7    63   20.0   29.2    0.00   349    1    100.0   15 
15/07/19  13.45   22.2   23.7   22.2    81   18.8   4.8   ESE   1.21  20.9    SE   22.2   23.1   23.1   22.6   964.9  0.51   2.3    30     0.65     37     0.0  0.00   0.0   0.000   0.041   27.7    64   20.3   29.3    0.00   350    1    100.0   15 
15/07/19  14.00   22.6   22.7   22.2    81   19.2   6.4   ESE   1.61  22.5   ESE   22.6   23.6   23.6   23.2   964.9  0.25   2.3    34     0.73     39     0.0  0.00   0.0   0.000   0.045   27.7    65   20.5   29.4    0.05   341    1     99.7   15 
15/07/19  14.15   22.5   22.7   22.4    82   19.3   4.8   ESE   1.21  20.9   ESE   22.5   23.4   23.4   23.1   964.9  0.25   2.3    36     0.77     40     0.0  0.00   0.0   0.000   0.043   27.7    65   20.5   29.4    0.00   328    1     95.9   15 
15/07/19  14.30   23.8   23.8   22.5    80   20.1   9.7    SE   2.41  29.0    SE   23.8   25.1   25.1   25.0   964.9  0.00   0.0    50     1.08     67     0.0  0.00   0.0   0.000   0.057   27.7    66   20.8   29.6    0.00   327    1     95.6   15 
15/07/19  14.45   23.6   24.2   23.6    81   20.1  14.5    SE   3.62  33.8    SE   22.8   24.8   24.1   24.3   964.9  0.00   0.0    72     1.55    105     0.0  0.00   0.0   0.000   0.054   27.7    66   20.8   29.6    0.00   338    1     98.8   15 
15/07/19  15.00   23.6   23.8   23.5    82   20.4  16.1   SSE   4.02  38.6   SSE   22.5   24.9   23.8   24.3   964.9  0.00   0.0    95     2.04    130     0.0  0.00   0.0   0.000   0.055   27.8    66   20.9   29.8    0.08   336    1     98.2   15 
15/07/19  15.15   23.8   23.8   23.3    78   19.7  17.7    SE   4.43  37.0   SSE   22.4   25.1   23.7   24.9   964.9  0.00   0.0   162     3.48    248     0.0  0.00   0.0   0.000   0.057   27.8    66   20.9   29.8    0.00   349    1    100.0   15 
15/07/19  15.30   23.9   24.3   23.8    79   20.0  14.5    SE   3.62  40.2   ESE   23.2   25.2   24.5   26.9   964.9  0.00   0.0   247     5.31    279     0.0  0.00   0.0   0.000   0.058   27.9    66   20.9   29.9    0.00   350    1    100.0   15 
15/07/19  15.45   24.3   24.4   23.9    77   20.0  11.3    SE   2.82  30.6    SE   24.3   25.7   25.7   27.1   964.9  0.00   0.0   148     3.18    195     0.0  0.00   0.0   0.000   0.063   28.0    66   21.1   30.1    0.00   347    1    100.0   15 
15/07/19  16.00   24.4   24.6   24.2    74   19.5  11.3    SE   2.82  35.4   ESE   24.4   25.7   25.7   26.0   964.9  0.00   0.0    77     1.66     95     0.0  0.00   0.0   0.000   0.063   28.0    64   20.6   29.8    0.15   350    1    100.0   15 
15/07/19  16.15   23.7   24.4   23.7    75   19.0   8.0   ESE   2.01  32.2    SE   23.7   24.8   24.8   24.6   964.9  0.00   0.0    41     0.88     49     0.0  0.00   0.0   0.000   0.056   28.0    63   20.3   29.7    0.00   347    1    100.0   15 
15/07/19  16.30   23.8   23.8   23.7    77   19.5   4.8   ESE   1.21  20.9    SE   23.8   25.0   25.0   24.6   964.9  0.00   0.0    29     0.62     33     0.0  0.00   0.0   0.000   0.057   28.1    63   20.4   29.9    0.00   351    1    100.0   15 
15/07/19  16.45   24.6   24.6   23.7    73   19.4   6.4   ESE   1.61  29.0   ESE   24.6   25.8   25.8   25.4   964.9  0.00   0.0    28     0.60     30     0.0  0.00   0.0   0.000   0.065   28.1    63   20.4   29.9    0.00   349    1    100.0   15 
15/07/19  17.00   24.8   24.8   24.6    71   19.2  11.3   ESE   2.82  27.4    SE   24.8   25.9   25.9   25.4   964.9  0.00   0.0    16     0.34     26     0.0  0.00   0.0   0.000   0.068   28.0    62   20.0   29.6    0.05   352    1    100.0   15 
15/07/19  17.15   24.6   25.0   24.6    73   19.4  11.3   ESE   2.82  33.8   SSE   24.6   25.8   25.8   25.3   964.9  0.00   0.0    15     0.32     21     0.0  0.00   0.0   0.000   0.065   28.0    62   20.0   29.6    0.00   351    1    100.0   15 
15/07/19  17.30   20.0   24.6   20.0    84   17.2  12.9   ESE   3.22  43.5    SE   19.6   20.8   20.4   19.6   964.9  9.91 128.3     1     0.02     11     0.0  0.00   0.0   0.000   0.017   28.0    64   20.6   29.8    0.00   347    1    100.0   15 
15/07/19  17.45   21.2   21.2   19.0    87   19.0   6.4   NNE   1.61  24.1   NNE   21.2   22.2   22.2   21.4   964.9  3.05  68.6     1     0.02      5     0.0  0.00   0.0   0.000   0.030   28.0    64   20.6   29.8    0.00   348    1    100.0   15 
15/07/19  18.00   21.8   21.9   21.3    85   19.2   6.4     E   1.61  29.0     E   21.8   22.8   22.8   22.0   964.9  0.00   1.0     0     0.00      0     0.0  0.00   0.0   0.000   0.036   28.1    65   20.9   30.1    0.03   330    1     96.5   15 
15/07/19  18.15   21.1   22.1   21.1    83   18.1  11.3     E   2.82  33.8    NE   21.1   21.8   21.8   21.1   964.9  0.00   0.0     7     0.15      9     0.0  0.00   0.0   0.000   0.028   28.2    65   21.0   30.3    0.00   346    1    100.0   15 
15/07/19  18.30   20.7   21.1   20.7    81   17.3  12.9   ENE   3.22  41.8    NE   20.4   21.5   21.2   20.4   964.9  0.00   0.0     2     0.04      7     0.0  0.00   0.0   0.000   0.025   28.1    62   20.1   29.7    0.00   346    1    100.0   15 
15/07/19  18.45   20.7   20.8   20.6    80   17.1  12.9     E   3.22  40.2   ENE   20.3   21.4   21.1   20.3   964.9  0.00   0.0     6     0.13      7     0.0  0.00   0.0   0.000   0.024   28.0    61   19.8   29.4    0.00   342    1    100.0   15 
15/07/19  19.00   20.6   20.7   20.4    82   17.4   9.7     E   2.41  32.2   ENE   20.6   21.5   21.5   20.7   964.9  0.00   0.0     4     0.09      7     0.0  0.00   0.0   0.000   0.024   28.0    61   19.8   29.4    0.03   328    1     95.9   15 
15/07/19  19.15   20.6   20.7   20.6    81   17.2   9.7   ENE   2.41  29.0   ENE   20.6   21.4   21.4   20.7   964.9  0.00   0.0     6     0.13      9     0.0  0.00   0.0   0.000   0.024   28.1    62   20.1   29.7    0.00   351    1    100.0   15 
15/07/19  19.30   20.7   20.9   20.6    80   17.1  16.1    NE   4.02  35.4    NE   19.5   21.4   20.3   19.7   964.9  0.00   0.0     7     0.15      7     0.0  0.00   0.0   0.000   0.024   28.1    60   19.6   29.5    0.00   344    1    100.0   15 
15/07/19  19.45   20.7   20.9   20.7    79   16.9  17.7   NNE   4.43  35.4     N   19.3   21.4   20.0   19.3   964.9  0.00   0.0     3     0.06      5     0.0  0.00   0.0   0.000   0.025   27.8    60   19.4   29.1    0.00   347    1    100.0   15 
15/07/19  20.00   20.6   20.9   20.6    81   17.2  17.7   NNE   4.43  27.4   NNE   19.1   21.4   20.0   19.1   964.9  0.00   0.0     0     0.00      0     0.0  0.00   0.0   0.000   0.023   27.9    60   19.4   29.2    0.05   307    1     89.8   15 
15/07/19  20.15   20.6   20.8   20.6    80   17.0  16.1   NNE   4.02  33.8   NNE   19.4   21.4   20.3   19.3   964.9  0.00   0.0     0     0.00      0     0.0  0.00   0.0   0.000   0.024   28.0    61   19.8   29.4    0.00   285    1     83.3   15 
15/07/19  20.30   20.7   20.8   20.6    79   16.9  12.9    NE   3.22  33.8   NNE   20.3   21.4   21.0   20.0   964.9  0.00   0.0     0     0.00      0     0.0  0.00   0.0   0.000   0.024   27.9    60   19.4   29.2    0.00   300    1     87.7   15 
15/07/19  20.45   20.9   20.9   20.7    78   17.0  14.5    NE   3.62  33.8    NE   20.2   21.5   20.7   19.8   964.9  0.00   0.0     0     0.00      0     0.0  0.00   0.0   0.000   0.027   27.9    60   19.4   29.2    0.00   305    1     89.2   15 
15/07/19  21.00   20.8   21.0   20.7    79   17.0  12.9    NE   3.22  35.4   NNE   20.4   21.4   21.1   20.1   964.9  0.00   0.0     0     0.00      0     0.0  0.00   0.0   0.000   0.025   27.8    59   19.1   29.0    0.05   320    1     93.6   15 
15/07/19  21.15   20.8   20.9   20.7    79   17.0  11.3   ENE   2.82  35.4     E   20.8   21.4   21.4   20.4   964.9  0.00   0.0     0     0.00      0     0.0  0.00   0.0   0.000   0.025   27.8    60   19.4   29.1    0.00   319    1     93.3   15 
15/07/19  21.30   20.7   20.8   20.6    79   16.9   9.7   ENE   2.41  29.0   ENE   20.7   21.4   21.4   20.3   964.9  0.00   0.0     0     0.00      0     0.0  0.00   0.0   0.000   0.024   27.9    60   19.4   29.2    0.00   336    1     98.2   15 
15/07/19  21.45   20.8   20.8   20.6    78   16.9   6.4   ENE   1.61  27.4    NE   20.8   21.4   21.4   20.4   964.9  0.00   0.0     0     0.00      0     0.0  0.00   0.0   0.000   0.026   27.9    60   19.4   29.2    0.00   343    1    100.0   15 
15/07/19  22.00   21.1   21.1   20.8    76   16.7   6.4   ENE   1.61  25.7    NE   21.1   21.5   21.5   20.4   964.9  0.00   0.0     0     0.00      0     0.0  0.00   0.0   0.000   0.029   27.9    59   19.1   29.1    0.03   323    1     94.4   15 
15/07/19  22.15   21.3   21.4   21.1    72   16.1  11.3    NE   2.82  33.8   ENE   21.3   21.6   21.6   20.4   964.9  0.00   0.0     0     0.00      0     0.0  0.00   0.0   0.000   0.031   27.9    57   18.6   28.9    0.00   340    1     99.4   15 
15/07/19  22.30   21.6   21.6   21.3    70   15.9  11.3    NE   2.82  27.4    NE   21.6   21.8   21.8   20.7   964.9  0.00   0.0     0     0.00      0     0.0  0.00   0.0   0.000   0.034   28.0    56   18.4   29.0    0.00   345    1    100.0   15 
15/07/19  22.45   21.6   21.7   21.6    69   15.7  11.3   ENE   2.82  32.2   ENE   21.6   21.8   21.8   20.7   964.9  0.00   0.0     0     0.00      0     0.0  0.00   0.0   0.000   0.034   28.0    55   18.1   28.9    0.00   327    1     95.6   15 
15/07/19  23.00   21.4   21.6   21.4    70   15.7   9.7   ENE   2.41  27.4     E   21.4   21.6   21.6   20.5   964.9  0.00   0.0     0     0.00      0     0.0  0.00   0.0   0.000   0.032   28.0    55   18.1   28.9    0.05   333    1     97.4   15 
15/07/19  23.15   21.8   21.8   21.4    69   15.8   9.7   ENE   2.41  25.7   NNE   21.8   22.0   22.0   20.9   964.9  0.00   0.0     0     0.00      0     0.0  0.00   0.0   0.000   0.036   27.9    55   18.0   28.7    0.00   270    1     78.9   15 
15/07/19  23.30   21.6   21.8   21.6    69   15.7   6.4    NE   1.61  20.9   NNE   21.6   21.8   21.8   20.7   964.9  0.00   0.0     0     0.00      0     0.0  0.00   0.0   0.000   0.034   27.8    55   18.0   28.6    0.00   254    1     74.3   15 
15/07/19  23.45   21.1   21.6   21.1    73   16.0   4.8   NNE   1.21  16.1     N   21.1   21.3   21.3   20.2   964.9  0.00   0.0     0     0.00      0     0.0  0.00   0.0   0.000   0.028   27.7    55   17.9   28.5    0.00   328    1     95.9   15 
16/07/19  00.00   20.8   21.1   20.7    76   16.4   4.8   NNE   1.21  27.4   NNW   20.8   21.3   21.3   20.2   964.9  0.00   0.0     0     0.00      0     0.0  0.00   0.0   0.000   0.025   27.6    56   18.0   28.4    0.05   340    1     99.4   15 
16/07/19   0.15   20.6   20.8   20.6    76   16.2   6.4     N   1.61  22.5   NNW   20.6   21.2   21.2   20.1   964.9  0.00   0.0     0     0.00      0     0.0  0.00   0.0   0.000   0.023   27.5    56   17.9   28.2    0.00   302    1     88.3   15 
16/07/19   0.30   20.6   20.6   20.4    77   16.4  11.3   NNW   2.82  37.0     N   20.6   21.2   21.2   20.2   964.9  0.00   0.0     0     0.00      0     0.0  0.00   0.0   0.000   0.023   27.5    56   17.9   28.2    0.00   307    1     89.8   15 
16/07/19   0.45   20.6   20.6   20.5    78   16.6   8.0     N   2.01  27.4     N   20.6   21.3   21.3   20.2   964.9  0.00   0.0     0     0.00      0     0.0  0.00   0.0   0.000   0.023   27.4    57   18.1   28.2    0.00   327    1     95.6   15 
16/07/19   1.00   20.7   20.8   20.6    76   16.3   9.7     N   2.41  25.7     N   20.7   21.2   21.2   20.2   964.9  0.00   0.0     0     0.00      0     0.0  0.00   0.0   0.000   0.024   27.3    57   18.0   28.0    0.05   337    1     98.5   15 
16/07/19   1.15   20.9   21.0   20.7    73   15.9  14.5   NNE   3.62  37.0   NNE   20.1   21.2   20.4   19.4   964.9  0.00   0.0     0     0.00      0     0.0  0.00   0.0   0.000   0.027   27.3    57   18.0   28.0    0.00   326    1     95.3   15 
16/07/19   1.30   20.8   20.9   20.7    73   15.8   8.0   NNE   2.01  24.1    NE   20.8   21.1   21.1   20.0   964.9  0.00   0.0     0     0.00      0     0.0  0.00   0.0   0.000   0.025   27.2    56   17.6   27.7    0.00   335    1     98.0   15 
16/07/19   1.45   20.7   20.9   20.7    72   15.4   8.0     N   2.01  25.7     N   20.7   21.0   21.0   19.9   964.9  0.00   0.0     0     0.00      0     0.0  0.00   0.0   0.000   0.024   27.2    56   17.6   27.7    0.00   334    1     97.7   15 
16/07/19   2.00   20.6   20.8   20.6    73   15.6   9.7     N   2.41  25.7     N   20.6   21.0   21.0   19.9   964.9  0.00   0.0     0     0.00      0     0.0  0.00   0.0   0.000   0.024   27.1    56   17.5   27.6    0.05   334    1     97.7   15 
16/07/19   2.15   20.5   20.7   20.5    73   15.5   6.4   NNW   1.61  22.5    NW   20.5   20.9   20.9   19.8   964.9  0.00   0.0     0     0.00      0     0.0  0.00   0.0   0.000   0.023   27.1    56   17.5   27.6    0.00   344    1    100.0   15 
16/07/19   2.30   20.4   20.6   20.4    73   15.4  11.3   NNW   2.82  24.1   NNW   20.4   20.8   20.8   19.7   964.9  0.00   0.0     0     0.00      0     0.0  0.00   0.0   0.000   0.021   27.1    56   17.5   27.6    0.00   341    1     99.7   15 
16/07/19   2.45   20.4   20.5   20.3    73   15.4   8.0   NNW   2.01  24.1    NW   20.4   20.9   20.9   19.8   964.9  0.00   0.0     0     0.00      0     0.0  0.00   0.0   0.000   0.022   27.1    56   17.5   27.6    0.00   348    1    100.0   15 
16/07/19   3.00   20.3   20.4   20.3    72   15.1   3.2     N   0.80  17.7     N   20.3   20.7   20.7   19.6   964.9  0.00   0.0     0     0.00      0     0.0  0.00   0.0   0.000   0.021   27.0    55   17.2   27.4    0.05   347    1    100.0   15 
16/07/19   3.15   20.4   20.4   20.3    71   15.0   4.8     N   1.21  19.3   NNE   20.4   20.7   20.7   19.6   964.9  0.00   0.0     0     0.00      0     0.0  0.00   0.0   0.000   0.022   27.0    55   17.2   27.4    0.00   350    1    100.0   15 
16/07/19   3.30   20.4   20.4   20.3    73   15.4   4.8   NNE   1.21  19.3    NE   20.4   20.9   20.9   19.8   964.9  0.00   0.0     0     0.00      0     0.0  0.00   0.0   0.000   0.022   27.0    55   17.2   27.4    0.00   349    1    100.0   15 
16/07/19   3.45   20.6   20.6   20.4    72   15.3   4.8   NNW   1.21  24.1   NNW   20.6   20.9   20.9   19.8   964.9  0.00   0.0     0     0.00      0     0.0  0.00   0.0   0.000   0.023   27.0    55   17.2   27.4    0.00   348    1    100.0   15 
16/07/19   4.00   20.5   20.6   20.5    72   15.3   6.4   NNW   1.61  20.9   NNW   20.5   20.8   20.8   19.7   964.9  0.00   0.0     0     0.00      0     0.0  0.00   0.0   0.000   0.023   27.0    55   17.2   27.4    0.05   350    1    100.0   15 
16/07/19   4.15   20.6   20.6   20.4    73   15.5   6.4     N   1.61  24.1   NNW   20.6   21.0   21.0   19.9   964.9  0.00   0.0     0     0.00      0     0.0  0.00   0.0   0.000   0.023   27.0    55   17.2   27.4    0.00   352    1    100.0   15 
16/07/19   4.30   20.5   20.6   20.4    73   15.5   4.8   NNW   1.21  17.7   NNE   20.5   20.9   20.9   19.8   964.9  0.00   0.0     0     0.00      0     0.0  0.00   0.0   0.000   0.023   26.9    55   17.1   27.3    0.00   350    1    100.0   15 
16/07/19   4.45   21.1   21.1   20.3    71   15.6   6.4   NNW   1.61  24.1   NNW   21.1   21.2   21.2   20.1   964.9  0.00   0.0     0     0.00      0     0.0  0.00   0.0   0.000   0.029   26.9    56   17.4   27.4    0.00   350    1    100.0   15 
16/07/19   5.00   21.6   21.6   21.1    70   15.8  11.3     N   2.82  27.4   NNW   21.6   21.7   21.7   20.6   964.9  0.00   0.0     0     0.00      0     0.0  0.00   0.0   0.000   0.034   26.9    56   17.4   27.4    0.05   350    1    100.0   15 
16/07/19   5.15   21.5   21.6   21.4    70   15.8   9.7     N   2.41  27.4   NNE   21.5   21.7   21.7   20.6   964.9  0.00   0.0     0     0.00      0     0.0  0.00   0.0   0.000   0.033   26.8    56   17.3   27.3    0.00   349    1    100.0   15 
16/07/19   5.30   21.5   21.7   21.5    71   16.0  12.9   NNE   3.22  27.4   NNE   21.2   21.7   21.4   20.4   964.9  0.00   0.0     0     0.00      0     0.0  0.00   0.0   0.000   0.033   26.9    56   17.4   27.4    0.00   350    1    100.0   15 
16/07/19   5.45   21.6   21.6   21.4    71   16.1   8.0   NNE   2.01  29.0   NNE   21.6   21.8   21.8   20.7   964.9  0.00   0.0     0     0.00      0     0.0  0.00   0.0   0.000   0.034   26.9    57   17.7   27.5    0.00   351    1    100.0   15 
16/07/19   6.00   21.6   21.7   21.6    71   16.1  14.5   NNE   3.62  29.0     N   20.8   21.8   21.0   20.1   964.9  0.00   0.0     3     0.06      9     0.0  0.00   0.0   0.000   0.034   26.9    57   17.7   27.5    0.05   351    1    100.0   15 
16/07/19   6.15   21.7   21.7   21.6    70   16.0  16.1   NNE   4.02  30.6   NNW   20.6   21.9   20.8   20.0   964.9  0.00   0.0    14     0.30     19     0.0  0.00   0.0   0.000   0.035   26.9    57   17.7   27.5    0.00   352    1    100.0   15 
16/07/19   6.30   21.7   21.7   21.6    71   16.2  12.9   NNE   3.22  24.1   NNE   21.4   21.9   21.7   21.0   964.9  0.00   0.0    25     0.54     30     0.0  0.00   0.0   0.000   0.035   26.9    57   17.7   27.5    0.00   350    1    100.0   15 
16/07/19   6.45   22.1   22.1   21.7    69   16.1  11.3     N   2.82  29.0   NNE   22.1   22.3   22.3   21.9   964.9  0.00   0.0    48     1.03     62     0.0  0.00   0.0   0.000   0.039   26.7    57   17.4   27.2    0.00   350    1    100.0   15 
16/07/19   7.00   22.3   22.3   22.1    69   16.3   9.7     N   2.41  25.7   NNE   22.3   22.7   22.7   23.8   964.9  0.00   0.0    80     1.72     97     0.0  0.00   0.0   0.000   0.041   26.4    57   17.2   26.9    0.08   351    1    100.0   15 
16/07/19   7.15   22.4   22.4   22.3    68   16.2  12.9   NNE   3.22  32.2   NNE   22.2   22.8   22.6   24.5   964.9  0.00   0.0   121     2.60    144     0.0  0.00   0.0   0.000   0.043   26.3    57   17.1   26.8    0.00   350    1    100.0   15 
16/07/19   7.30   22.6   22.6   22.4    67   16.2  14.5     N   3.62  29.0   NNW   21.8   23.0   22.2   24.8   964.9  0.00   0.0   168     3.61    190     0.0  0.00   0.0   0.000   0.045   26.4    57   17.2   26.9    0.00   351    1    100.0   15 
16/07/19   7.45   22.8   22.8   22.6    67   16.3  12.9     N   3.22  30.6    NE   22.5   23.3   23.0   26.6   964.9  0.00   0.0   221     4.75    250     0.0  0.00   0.0   0.000   0.046   26.4    57   17.2   26.9    0.00   351    1    100.0   15 
16/07/19   8.00   22.8   22.9   22.8    67   16.4  17.7     N   4.43  37.0     N   21.4   23.3   21.9   25.7   964.9  0.00   0.0   278     5.98    299     0.0  0.00   0.0   0.000   0.047   26.3    57   17.1   26.8    0.18   351    1    100.0   15 
16/07/19   8.15   23.1   23.1   22.8    66   16.4  16.1     N   4.02  37.0     N   21.9   23.6   22.5   26.8   964.9  0.00   0.0   322     6.92    341     0.0  0.00   0.0   0.000   0.049   26.3    57   17.1   26.8    0.00   350    1    100.0   15 
16/07/19   8.30   23.1   23.1   22.9    64   15.9  20.9   NNE   5.23  40.2   NNE   21.3   23.6   21.8   25.9   964.9  0.00   0.0   365     7.85    387     0.0  0.00   0.0   0.000   0.050   26.3    56   16.9   26.7    0.00   344    1    100.0   15 
16/07/19   8.45   23.6   23.6   23.1    65   16.6  14.5   NNE   3.62  32.2    NE   22.9   24.3   23.6   28.6   964.9  0.00   0.0   411     8.84    431     0.0  0.00   0.0   0.000   0.055   26.3    57   17.1   26.8    0.00   349    1    100.0   15 
16/07/19   9.00   23.6   23.6   23.4    64   16.3  17.7     N   4.43  33.8     N   22.2   24.2   22.8   27.6   964.9  0.00   0.0   450     9.68    468     0.0  0.00   0.0   0.000   0.054   26.3    57   17.1   26.8    0.33   346    1    100.0   15 
16/07/19   9.15   23.7   23.7   23.4    64   16.5  19.3     N   4.83  41.8     N   22.1   24.3   22.8   27.5   964.9  0.00   0.0   488    10.49    508     0.0  0.00   0.0   0.000   0.056   26.4    57   17.2   26.9    0.00   346    1    100.0   15 
16/07/19   9.30   24.0   24.0   23.7    64   16.8  16.1     N   4.02  35.4     N   22.9   24.7   23.6   28.8   964.9  0.00   0.0   532    11.44    554     0.0  0.00   0.0   0.000   0.059   26.6    58   17.6   27.1    0.00   352    1    100.0   15 
16/07/19   9.45   24.1   24.1   23.9    62   16.4  19.3   NNE   4.83  41.8     N   22.6   24.7   23.1   28.1   964.9  0.00   0.0   574    12.34    594     0.0  0.00   0.0   0.000   0.060   26.7    56   17.2   27.1    0.00   350    1    100.0   15 
16/07/19  10.00   24.2   24.3   24.1    61   16.2  17.7   NNE   4.43  37.0   NNE   22.9   24.7   23.4   28.6   964.9  0.00   0.0   613    13.18    631     0.1  0.01   0.5   0.000   0.061   26.7    56   17.2   27.1    0.43   350    1    100.0   15 
16/07/19  10.15   24.4   24.6   24.2    59   15.9  17.7     N   4.43  33.8   NNW   23.2   24.8   23.5   28.7   964.9  0.00   0.0   653    14.04    671     0.7  0.07   0.9   0.000   0.064   26.8    56   17.3   27.3    0.00   350    1    100.0   15 
16/07/19  10.30   24.4   24.7   24.3    60   16.2  19.3     N   4.83  40.2    NE   22.9   24.8   23.3   28.4   964.9  0.00   0.0   687    14.77    701     1.1  0.12   1.3   0.000   0.064   27.0    56   17.5   27.6    0.00   343    1    100.0   15 
16/07/19  10.45   24.8   25.1   24.4    60   16.5  16.1   NNW   4.02  35.4    NE   23.8   25.3   24.2   29.7   964.9  0.00   0.0   719    15.46    737     1.5  0.16   1.7   0.000   0.068   27.2    56   17.6   27.7    0.00   352    1    100.0   15 
16/07/19  11.00   24.9   25.0   24.6    58   16.1  20.9   NNW   5.23  38.6   NNW   23.3   25.2   23.6   28.6   964.9  0.00   0.0   752    16.17    766     1.9  0.20   2.1   0.000   0.068   27.4    57   18.1   28.2    0.56   349    1    100.0   15 
16/07/19  11.15   25.2   25.8   24.8    58   16.3  19.3   NNW   4.83  43.5   NNE   23.7   25.5   24.1   29.2   964.9  0.00   0.0   785    16.88    802     2.3  0.25   2.5   0.000   0.071   27.7    55   17.9   28.5    0.00   342    1    100.0   15 
16/07/19  11.30   25.7   25.7   25.2    57   16.5  17.7     N   4.43  35.4   NNE   24.4   26.1   24.8   30.2   964.9  0.00   0.0   814    17.50    826     2.8  0.30   2.9   0.000   0.076   28.0    54   17.8   28.8    0.00   344    1    100.0   15 
16/07/19  11.45   25.7   26.1   25.3    55   16.0  19.3     N   4.83  38.6     N   24.3   26.0   24.6   29.8   964.9  0.00   0.0   839    18.04    849     3.1  0.33   3.3   0.000   0.077   27.9    54   17.7   28.6    0.00   339    1     99.1   15 
16/07/19  12.00   25.9   26.0   25.6    57   16.7  16.1   NNW   4.02  35.4    NW   24.9   26.3   25.3   30.9   964.9  0.00   0.0   858    18.45    863     3.4  0.36   3.5   0.000   0.079   28.0    53   17.5   28.7    0.63   342    1    100.0   15 
16/07/19  12.15   26.1   26.3   25.8    57   16.9  14.5   NNW   3.62  37.0   NNE   25.5   26.6   25.9   31.7   964.9  0.00   0.0   871    18.73    879     3.7  0.40   3.8   0.000   0.081   28.0    53   17.5   28.7    0.00   348    1    100.0   15 
16/07/19  12.30   26.7   26.7   26.1    56   17.2  12.9   NNW   3.22  27.4   NNW   26.4   27.1   26.9   32.9   964.9  0.00   0.0   883    18.99    889     3.9  0.42   4.0   0.000   0.087   28.0    54   17.8   28.8    0.00   342    1    100.0   15 
16/07/19  12.45   26.7   26.8   26.3    54   16.6  14.5   NNW   3.62  30.6   NNW   26.1   27.1   26.4   32.2   964.9  0.00   0.0   893    19.20    898     4.1  0.44   4.2   0.000   0.087   28.1    53   17.6   28.9    0.00   348    1    100.0   15 
© www.elbaexplorer.com